Time;durP1;ratioP1;P1;durP2;ratioP2;P2;SDS_P1;SDS_P2;PMS_P1;PMS_P2;Temp;Humidity;BMP_temperature;BMP_pressure;BME280_temperature;BME280_humidity;BME280_pressure;Samples;Min_cycle;Max_cycle;Signal;HPM_P1;HPM_P2
2021/09/18 00:00:55;;;;;;;14.63;4.65;;;;;;;21.26;46.97;93527.16;5026273;28;20082;-75
2021/09/18 00:03:20;;;;;;;16.77;4.57;;;;;;;21.30;46.68;93524.44;5029144;28;20120;-76
2021/09/18 00:05:46;;;;;;;18.42;5.43;;;;;;;21.32;47.27;93503.16;5029741;28;20381;-75
2021/09/18 00:08:11;;;;;;;15.95;5.82;;;;;;;21.42;46.66;93524.81;5030017;28;20531;-77
2021/09/18 00:10:37;;;;;;;26.00;5.43;;;;;;;21.57;46.87;93522.09;5029141;28;20045;-77
2021/09/18 00:13:03;;;;;;;19.50;5.20;;;;;;;21.47;46.86;93537.16;5027324;28;20116;-76
2021/09/18 00:15:30;;;;;;;21.55;4.70;;;;;;;21.48;46.52;93532.53;5030366;28;20025;-76
2021/09/18 00:17:56;;;;;;;15.63;5.38;;;;;;;21.39;46.67;93519.41;5025881;28;20454;-78
2021/09/18 00:20:21;;;;;;;12.85;4.75;;;;;;;21.49;46.86;93523.25;5031362;28;20037;-77
2021/09/18 00:22:47;;;;;;;17.52;5.72;;;;;;;21.43;46.84;93520.94;5031082;28;20071;-77
2021/09/18 00:25:12;;;;;;;21.50;5.15;;;;;;;21.53;46.95;93518.59;5031961;28;20502;-76
2021/09/18 00:27:38;;;;;;;15.95;6.05;;;;;;;21.54;47.00;93510.13;5029895;28;20029;-77
2021/09/18 00:30:04;;;;;;;22.52;6.35;;;;;;;21.58;46.40;93507.41;5025374;28;20510;-77
2021/09/18 00:32:29;;;;;;;14.27;5.28;;;;;;;21.87;45.32;93522.44;5027345;28;20041;-76
2021/09/18 00:34:55;;;;;;;18.17;5.07;;;;;;;21.73;46.30;93511.66;5029415;28;20494;-76
2021/09/18 00:37:20;;;;;;;28.05;5.68;;;;;;;21.72;46.85;93520.91;5029028;28;20436;-76
2021/09/18 00:39:45;;;;;;;13.73;5.68;;;;;;;21.62;46.86;93525.19;5027824;28;20029;-76
2021/09/18 00:42:11;;;;;;;19.95;5.05;;;;;;;21.64;47.09;93535.63;5030387;28;20045;-77
2021/09/18 00:44:36;;;;;;;13.23;5.47;;;;;;;21.60;47.25;93530.25;5028394;28;20040;-78
2021/09/18 00:47:02;;;;;;;20.92;5.00;;;;;;;21.62;47.02;93543.34;5029999;28;20044;-77
2021/09/18 00:49:27;;;;;;;21.20;4.70;;;;;;;21.56;47.23;93523.28;5029892;28;20637;-77
2021/09/18 00:51:53;;;;;;;15.13;5.30;;;;;;;21.69;47.25;93554.19;5030364;28;20407;-76
2021/09/18 00:54:18;;;;;;;16.10;4.82;;;;;;;21.74;46.46;93568.09;5030178;28;20040;-76
2021/09/18 00:56:44;;;;;;;21.23;5.85;;;;;;;21.64;47.66;93589.75;5032576;28;20032;-76
2021/09/18 00:59:09;;;;;;;15.80;5.30;;;;;;;21.37;49.03;93614.47;5031930;28;20037;-76
2021/09/18 01:01:35;;;;;;;29.20;5.35;;;;;;;21.13;50.31;93603.63;5031460;28;20416;-75
2021/09/18 01:04:01;;;;;;;15.90;5.15;;;;;;;21.19;52.07;93608.28;5027766;28;20022;-75
2021/09/18 01:06:31;;;;;;;15.00;5.00;;;;;;;20.63;52.32;93559.50;5031714;28;20457;-76
2021/09/18 01:08:59;;;;;;;15.63;5.45;;;;;;;20.80;53.07;93623.59;5043601;28;20076;-76
2021/09/18 01:11:25;;;;;;;13.30;4.93;;;;;;;20.61;54.19;93603.09;5030324;28;20041;-76
2021/09/18 01:13:50;;;;;;;17.90;5.97;;;;;;;20.24;56.50;93587.13;5026473;28;20055;-77
2021/09/18 01:16:18;;;;;;;16.98;6.32;;;;;;;20.20;56.27;93586.34;5029640;28;20037;-76
2021/09/18 01:18:44;;;;;;;13.18;5.97;;;;;;;19.85;58.12;93583.44;5027888;28;20033;-77
2021/09/18 01:21:10;;;;;;;15.50;5.60;;;;;;;19.77;58.71;93573.72;5028515;28;20037;-76
2021/09/18 01:23:36;;;;;;;14.88;5.72;;;;;;;19.58;59.29;93551.28;5028682;28;20044;-75
2021/09/18 01:26:01;;;;;;;19.08;6.85;;;;;;;19.70;59.68;93542.84;5029384;28;20040;-75
2021/09/18 01:28:27;;;;;;;15.48;6.72;;;;;;;19.78;60.26;93546.38;5027837;28;20045;-76
2021/09/18 01:30:52;;;;;;;16.40;5.97;;;;;;;20.03;59.53;93544.59;5030276;28;20492;-76
2021/09/18 01:33:19;;;;;;;15.27;6.38;;;;;;;20.10;60.12;93527.63;5030347;28;20769;-75
2021/09/18 01:35:45;;;;;;;19.05;6.25;;;;;;;20.17;59.52;93525.78;5013251;28;20507;-76
2021/09/18 01:38:11;;;;;;;33.00;7.53;;;;;;;20.25;59.63;93528.50;5010079;28;20654;-77
2021/09/18 01:40:39;;;;;;;14.05;5.60;;;;;;;20.36;59.67;93527.38;5010978;28;20037;-76
2021/09/18 01:43:05;;;;;;;14.60;6.93;;;;;;;20.20;60.21;93505.34;5008146;28;20036;-76
2021/09/18 01:45:31;;;;;;;18.63;7.43;;;;;;;20.36;59.32;93518.50;5010424;28;20083;-76
2021/09/18 01:47:59;;;;;;;15.52;6.43;;;;;;;20.35;59.61;93525.81;5007664;28;20045;-76
2021/09/18 01:50:26;;;;;;;17.45;6.18;;;;;;;20.36;59.94;93521.97;5011754;28;20041;-76
2021/09/18 01:52:56;;;;;;;17.95;5.97;;;;;;;20.47;58.73;93525.50;5006703;28;20047;-76
2021/09/18 01:55:21;;;;;;;14.95;6.68;;;;;;;20.35;59.03;93506.91;5009367;28;20037;-76
2021/09/18 01:57:50;;;;;;;12.57;5.32;;;;;;;20.55;59.30;93528.97;5011249;28;20060;-76
2021/09/18 02:00:16;;;;;;;14.98;5.53;;;;;;;20.66;58.75;93542.50;5027888;28;20412;-75
2021/09/18 02:02:43;;;;;;;20.33;6.15;;;;;;;20.52;58.62;93522.41;5011497;28;20065;-76
2021/09/18 02:05:10;;;;;;;17.85;7.70;;;;;;;20.55;57.96;93516.25;5008955;28;20060;-75
2021/09/18 02:07:36;;;;;;;21.38;6.55;;;;;;;20.37;58.58;93514.66;5009067;28;20922;-75
2021/09/18 02:10:33;;;;;;;17.40;6.10;;;;;;;20.63;58.57;93518.97;5009454;28;20550;-75
2021/09/18 02:13:08;;;;;;;20.73;6.97;;;;;;;20.48;58.38;93500.00;5010016;28;20055;-76
2021/09/18 02:15:34;;;;;;;22.38;7.30;;;;;;;20.44;58.84;93509.25;5022325;28;20056;-76
2021/09/18 02:18:00;;;;;;;15.45;6.20;;;;;;;20.41;58.55;93510.81;5008998;28;20037;-76
2021/09/18 02:20:28;;;;;;;18.05;7.68;;;;;;;20.45;58.77;93514.28;5011369;28;20378;-76
2021/09/18 02:22:55;;;;;;;18.55;6.50;;;;;;;20.44;59.26;93503.84;5008451;28;20571;-75
2021/09/18 02:25:22;;;;;;;15.93;5.80;;;;;;;20.69;58.65;93514.72;5021152;28;20068;-77
2021/09/18 02:27:47;;;;;;;14.02;5.30;;;;;;;20.50;58.19;93516.63;5008457;28;20412;-76
2021/09/18 02:30:20;;;;;;;18.23;5.25;;;;;;;20.72;58.67;93520.13;5005375;28;20045;-76
2021/09/18 02:32:46;;;;;;;12.13;5.75;;;;;;;20.67;57.92;93508.94;5005658;28;20072;-76
2021/09/18 02:35:17;;;;;;;22.67;7.68;;;;;;;20.67;58.01;93515.13;5010058;28;20124;-77
2021/09/18 02:37:46;;;;;;;20.75;6.78;;;;;;;20.71;57.75;93509.72;5006768;28;20426;-77
2021/09/18 02:40:14;;;;;;;19.42;6.50;;;;;;;20.65;57.68;93497.72;5008576;28;20647;-75
2021/09/18 02:42:42;;;;;;;13.82;5.53;;;;;;;20.57;58.63;93505.84;5006529;28;20032;-75
2021/09/18 02:45:09;;;;;;;15.68;5.95;;;;;;;20.44;58.80;93503.84;5007444;28;20048;-76
2021/09/18 02:47:35;;;;;;;16.90;6.68;;;;;;;20.42;58.73;93512.34;5008138;28;20524;-75
2021/09/18 02:50:05;;;;;;;19.83;6.95;;;;;;;20.50;59.01;93524.72;5007098;28;20120;-76
2021/09/18 02:52:31;;;;;;;13.20;6.00;;;;;;;20.53;58.41;93515.84;5006863;28;20033;-75
2021/09/18 02:54:56;;;;;;;22.50;7.32;;;;;;;20.38;58.99;93505.41;5007882;28;20457;-75
2021/09/18 02:57:21;;;;;;;11.07;5.82;;;;;;;20.32;59.22;93491.50;5008915;28;20160;-76
2021/09/18 02:59:47;;;;;;;11.40;6.80;;;;;;;20.45;59.03;93500.78;5008199;28;20041;-75
2021/09/18 03:02:12;;;;;;;17.50;7.65;;;;;;;20.47;58.69;93501.19;5006495;28;20045;-76
2021/09/18 03:04:38;;;;;;;12.35;6.20;;;;;;;20.35;59.09;93496.13;5008443;28;20045;-75
2021/09/18 03:07:03;;;;;;;14.35;6.70;;;;;;;20.37;59.02;93493.81;5005418;28;20134;-76
2021/09/18 03:09:29;;;;;;;11.77;6.95;;;;;;;20.31;59.29;93500.75;5006102;28;20060;-79
2021/09/18 03:11:54;;;;;;;15.75;6.90;;;;;;;20.44;58.29;93504.63;5024038;28;20128;-77
2021/09/18 03:14:20;;;;;;;14.23;6.43;;;;;;;20.55;57.79;93507.34;5007082;28;20124;-78
2021/09/18 03:16:46;;;;;;;11.45;5.65;;;;;;;20.60;57.37;93491.53;5005198;28;20072;-77
2021/09/18 03:19:11;;;;;;;15.30;8.07;;;;;;;20.53;57.38;93502.31;5010385;28;20037;-79
2021/09/18 03:21:37;;;;;;;15.07;7.18;;;;;;;20.43;58.30;93503.09;5007142;28;20395;-77
2021/09/18 03:24:02;;;;;;;19.95;8.23;;;;;;;20.33;58.66;93494.97;5024504;28;20083;-77
2021/09/18 03:26:28;;;;;;;16.20;7.20;;;;;;;20.24;58.82;93483.75;5029777;28;20065;-77
2021/09/18 03:28:53;;;;;;;18.35;7.22;;;;;;;20.19;59.06;93482.19;5006642;28;20046;-76
2021/09/18 03:31:19;;;;;;;13.60;6.90;;;;;;;20.30;58.42;93479.50;5012449;28;20561;-76
2021/09/18 03:33:45;;;;;;;16.33;6.82;;;;;;;20.41;58.09;93488.41;5009796;28;20139;-77
2021/09/18 03:36:11;;;;;;;18.48;6.93;;;;;;;20.32;58.45;93485.31;5010257;28;20056;-76
2021/09/18 03:38:38;;;;;;;13.93;6.28;;;;;;;20.04;58.91;93494.06;5011879;28;20471;-77
2021/09/18 03:41:03;;;;;;;17.75;6.95;;;;;;;19.62;60.02;93487.31;5009230;28;20068;-76
2021/09/18 03:43:28;;;;;;;17.02;7.20;;;;;;;19.44;60.66;93467.56;5011246;28;20208;-76
2021/09/18 03:45:54;;;;;;;15.35;7.20;;;;;;;19.53;60.61;93473.41;5001320;28;21216;-76
2021/09/18 03:48:20;;;;;;;12.20;5.97;;;;;;;19.39;60.88;93446.34;5013089;28;20120;-75
2021/09/18 03:50:46;;;;;;;10.75;6.70;;;;;;;19.42;61.13;93459.06;5013790;28;20049;-75
2021/09/18 03:53:11;;;;;;;10.80;5.47;;;;;;;18.57;61.64;93363.41;5012094;28;20034;-75
2021/09/18 03:55:38;;;;;;;12.50;6.97;;;;;;;18.93;62.24;93445.25;5015327;28;20033;-76
2021/09/18 03:58:03;;;;;;;13.82;6.22;;;;;;;19.00;63.00;93499.22;5011857;28;20512;-76
2021/09/18 04:00:28;;;;;;;18.02;6.50;;;;;;;18.67;64.09;93497.38;5006536;28;20561;-76
2021/09/18 04:02:54;;;;;;;15.98;8.43;;;;;;;18.55;64.53;93479.56;5014477;28;20046;-76
2021/09/18 04:05:19;;;;;;;18.40;6.95;;;;;;;18.35;65.33;93480.91;5009041;28;20050;-75
2021/09/18 04:07:45;;;;;;;18.40;8.00;;;;;;;18.35;66.11;93497.06;5012674;28;20034;-75
2021/09/18 04:10:10;;;;;;;18.35;7.80;;;;;;;18.46;65.61;93471.00;5005957;28;20044;-76
2021/09/18 04:12:36;;;;;;;13.93;5.68;;;;;;;18.70;65.26;93480.47;5011964;28;20451;-76
2021/09/18 04:15:01;;;;;;;15.63;7.70;;;;;;;18.85;64.64;93501.03;5011107;28;20156;-76
2021/09/18 04:17:27;;;;;;;15.50;7.47;;;;;;;18.93;64.30;93499.13;5007618;28;20624;-76
2021/09/18 04:19:52;;;;;;;20.15;7.25;;;;;;;19.02;63.35;93486.91;5010543;28;20037;-76
2021/09/18 04:22:17;;;;;;;15.82;7.47;;;;;;;19.19;63.47;93498.97;5010062;28;20589;-76
2021/09/18 04:24:44;;;;;;;15.38;8.30;;;;;;;19.17;63.12;93504.72;5008799;28;20025;-75
2021/09/18 04:27:09;;;;;;;23.33;7.97;;;;;;;19.32;62.62;93500.22;5012159;28;20091;-75
2021/09/18 04:29:35;;;;;;;13.40;6.95;;;;;;;19.37;61.97;93480.97;5003605;28;20033;-75
2021/09/18 04:32:00;;;;;;;15.02;7.88;;;;;;;19.51;62.62;93502.66;5007257;28;20391;-75
2021/09/18 04:34:25;;;;;;;15.07;6.60;;;;;;;19.51;62.75;93491.88;5007010;28;20116;-77
2021/09/18 04:36:51;;;;;;;13.02;6.47;;;;;;;19.34;63.20;93508.72;5011390;28;20029;-77
2021/09/18 04:39:18;;;;;;;12.00;6.40;;;;;;;19.19;63.71;93512.44;5007783;28;20117;-77
2021/09/18 04:41:44;;;;;;;20.25;7.07;;;;;;;19.13;63.51;93514.72;5009427;28;20240;-77
2021/09/18 04:44:10;;;;;;;18.85;6.82;;;;;;;19.08;63.73;93565.50;5013003;28;20586;-77
2021/09/18 04:46:35;;;;;;;18.63;7.47;;;;;;;19.04;63.84;93572.78;5009288;28;20060;-77
2021/09/18 04:49:01;;;;;;;23.58;7.50;;;;;;;19.01;63.81;93558.13;5013947;28;20491;-78
2021/09/18 04:51:27;;;;;;;15.80;7.70;;;;;;;19.06;63.89;93597.44;5011872;28;20467;-79
2021/09/18 04:53:52;;;;;;;23.92;7.38;;;;;;;18.95;63.89;93604.66;5012937;28;20447;-77
2021/09/18 04:56:18;;;;;;;20.75;6.47;;;;;;;18.78;64.98;93606.00;5007467;28;20049;-77
2021/09/18 04:58:45;;;;;;;25.17;8.40;;;;;;;18.84;65.25;93602.63;5010011;28;20689;-77
2021/09/18 05:01:10;;;;;;;20.52;8.38;;;;;;;18.80;64.53;93574.09;5012934;28;20531;-77
2021/09/18 05:03:35;;;;;;;16.05;6.70;;;;;;;18.71;64.19;93563.63;5010647;28;20053;-77
2021/09/18 05:06:01;;;;;;;17.08;7.18;;;;;;;18.64;63.78;93533.88;5009348;28;20451;-76
2021/09/18 05:08:26;;;;;;;21.25;6.88;;;;;;;18.75;63.97;93517.88;5010735;28;20060;-77
2021/09/18 05:10:51;;;;;;;13.60;6.82;;;;;;;18.85;63.73;93536.81;5009241;28;20598;-77
2021/09/18 05:13:17;;;;;;;23.83;7.93;;;;;;;18.97;63.57;93522.28;5010993;28;20484;-77
2021/09/18 05:15:42;;;;;;;21.08;7.35;;;;;;;19.04;63.17;93516.19;5011808;28;20044;-77
2021/09/18 05:18:08;;;;;;;17.17;7.63;;;;;;;19.10;64.10;93526.25;5006772;28;20132;-77
2021/09/18 05:20:34;;;;;;;13.38;6.25;;;;;;;19.13;64.05;93495.06;5008131;28;20341;-77
2021/09/18 05:22:59;;;;;;;18.23;7.13;;;;;;;19.11;64.73;93495.47;5012507;28;20507;-77
2021/09/18 05:25:25;;;;;;;14.27;6.47;;;;;;;19.26;64.77;93504.41;5013946;28;20720;-77
2021/09/18 05:27:50;;;;;;;21.98;7.95;;;;;;;19.30;64.49;93491.72;5012612;28;20034;-77
2021/09/18 05:30:16;;;;;;;19.80;7.70;;;;;;;19.24;64.67;93493.22;5018196;28;20042;-77
2021/09/18 05:32:41;;;;;;;13.35;6.13;;;;;;;19.45;64.13;93517.69;5008255;28;20484;-79
2021/09/18 05:35:07;;;;;;;22.13;7.70;;;;;;;19.36;63.85;93511.78;5020746;28;20025;-77
2021/09/18 05:37:33;;;;;;;17.27;6.93;;;;;;;19.37;63.23;93518.72;5012593;28;20059;-77
2021/09/18 05:39:58;;;;;;;21.52;7.28;;;;;;;19.28;63.90;93510.19;5015294;28;20505;-77
2021/09/18 05:42:24;;;;;;;17.63;7.78;;;;;;;19.48;63.72;93514.22;5012493;28;20025;-78
2021/09/18 05:44:49;;;;;;;27.77;8.77;;;;;;;19.59;63.62;93543.97;5012986;28;20461;-77
2021/09/18 05:47:15;;;;;;;19.45;7.18;;;;;;;19.77;62.53;93535.97;5013515;28;20466;-77
2021/09/18 05:49:40;;;;;;;21.38;8.20;;;;;;;19.53;62.91;93530.06;5013667;28;20523;-78
2021/09/18 05:52:06;;;;;;;13.73;7.65;;;;;;;19.45;63.68;93533.84;5011158;28;20034;-77
2021/09/18 05:54:32;;;;;;;18.30;7.88;;;;;;;19.60;63.34;93542.81;5010476;28;20028;-77
2021/09/18 05:56:58;;;;;;;22.33;8.23;;;;;;;19.71;64.68;93559.81;5014355;28;20025;-80
2021/09/18 05:59:23;;;;;;;21.08;7.95;;;;;;;19.64;64.08;93544.38;5015290;28;20060;-79
2021/09/18 06:01:49;;;;;;;12.27;7.07;;;;;;;19.62;63.47;93556.69;5013003;28;20648;-77
2021/09/18 06:04:14;;;;;;;22.85;8.45;;;;;;;19.51;63.75;93553.91;5014756;28;20030;-78
2021/09/18 06:06:40;;;;;;;23.55;8.23;;;;;;;19.71;63.83;93565.22;5005664;28;20422;-77
2021/09/18 06:09:05;;;;;;;21.98;7.93;;;;;;;19.82;63.44;93562.59;5014586;28;20458;-77
2021/09/18 06:11:31;;;;;;;18.02;8.45;;;;;;;19.77;62.89;93562.94;5006747;28;20073;-77
2021/09/18 06:13:56;;;;;;;24.65;8.52;;;;;;;20.11;63.20;93577.78;5016230;28;20033;-77
2021/09/18 06:16:22;;;;;;;17.77;7.95;;;;;;;19.98;63.42;93561.16;5013894;28;20029;-77
2021/09/18 06:18:49;;;;;;;13.80;7.63;;;;;;;20.04;62.10;93562.31;5015577;28;20388;-77
2021/09/18 06:21:14;;;;;;;16.25;8.52;;;;;;;20.07;62.38;93574.28;5014404;28;20049;-80
2021/09/18 06:23:40;;;;;;;18.33;8.48;;;;;;;20.05;61.44;93544.19;5013522;28;20071;-79
2021/09/18 06:26:07;;;;;;;19.30;9.20;;;;;;;20.15;61.67;93562.38;5021898;28;20036;-78
2021/09/18 06:28:33;;;;;;;18.98;9.38;;;;;;;20.12;62.14;93569.31;5026338;28;20076;-79
2021/09/18 06:30:59;;;;;;;24.23;10.32;;;;;;;20.04;63.87;93577.75;5032638;28;20495;-77
2021/09/18 06:33:25;;;;;;;23.85;8.75;;;;;;;20.08;63.41;93563.13;5031639;28;20045;-77
2021/09/18 06:35:50;;;;;;;16.75;7.90;;;;;;;20.02;63.07;93570.03;5034132;28;20056;-76
2021/09/18 06:38:21;;;;;;;21.42;8.98;;;;;;;19.93;63.34;93556.09;5032093;28;20124;-76
2021/09/18 06:40:54;;;;;;;21.33;9.70;;;;;;;19.93;63.34;93556.09;5051396;28;20491;-79
2021/09/18 06:43:21;;;;;;;17.90;8.50;;;;;;;19.78;64.81;93561.78;5047876;28;20634;-77
2021/09/18 06:45:47;;;;;;;16.92;8.75;;;;;;;19.81;63.76;93548.31;5034658;28;20021;-76
2021/09/18 06:48:13;;;;;;;16.55;7.63;;;;;;;19.82;64.29;93559.88;5029974;28;20045;-77
2021/09/18 06:50:39;;;;;;;15.00;8.43;;;;;;;19.57;65.09;93533.53;5034225;28;20443;-77
2021/09/18 06:53:05;;;;;;;16.40;8.48;;;;;;;19.87;65.37;93562.22;5030366;28;20483;-76
2021/09/18 06:55:31;;;;;;;16.02;9.45;;;;;;;19.91;65.94;93563.00;5032606;28;20037;-76
2021/09/18 06:57:56;;;;;;;25.15;10.35;;;;;;;19.96;64.92;93563.44;5032085;28;21188;-76
2021/09/18 07:00:23;;;;;;;19.50;9.27;;;;;;;20.18;63.83;93588.66;5031050;28;20503;-79
2021/09/18 07:02:48;;;;;;;16.73;9.27;;;;;;;19.97;65.15;93572.31;5033618;28;20032;-77
2021/09/18 07:05:14;;;;;;;21.50;10.02;;;;;;;20.13;64.41;93584.34;5032117;28;20037;-78
2021/09/18 07:07:40;;;;;;;22.25;9.75;;;;;;;20.34;63.21;93591.78;5035910;28;20088;-76
2021/09/18 07:10:06;;;;;;;22.48;9.25;;;;;;;20.40;62.99;93595.69;5032705;28;20067;-76
2021/09/18 07:12:31;;;;;;;17.35;7.53;;;;;;;20.32;62.47;93588.72;5030777;28;20047;-76
2021/09/18 07:14:57;;;;;;;13.65;7.70;;;;;;;20.16;62.35;93580.13;5029221;28;20040;-76
2021/09/18 07:17:22;;;;;;;12.70;8.07;;;;;;;20.01;64.29;93562.28;5032518;28;20048;-76
2021/09/18 07:19:47;;;;;;;14.60;8.10;;;;;;;19.99;64.75;93564.63;5033141;28;20519;-76
2021/09/18 07:22:13;;;;;;;18.42;8.00;;;;;;;20.14;63.40;93582.44;5033678;28;20369;-76
2021/09/18 07:24:38;;;;;;;16.30;8.23;;;;;;;20.12;64.58;93584.72;5015489;28;20047;-79
2021/09/18 07:27:04;;;;;;;18.35;9.95;;;;;;;20.10;64.65;93565.41;5021080;28;20626;-77
2021/09/18 07:29:29;;;;;;;21.73;8.82;;;;;;;20.17;64.12;93563.56;5026587;28;20044;-76
2021/09/18 07:31:55;;;;;;;18.63;8.95;;;;;;;20.14;65.08;93577.03;5030471;28;20013;-77
2021/09/18 07:34:23;;;;;;;16.23;8.40;;;;;;;20.02;65.16;93572.72;5030400;28;20471;-78
2021/09/18 07:36:49;;;;;;;20.65;8.00;;;;;;;19.85;63.35;93594.22;5027358;28;20539;-77
2021/09/18 07:39:15;;;;;;;13.55;7.55;;;;;;;19.57;64.28;93587.47;5032142;28;20156;-77
2021/09/18 07:41:43;;;;;;;14.95;8.50;;;;;;;19.47;65.08;93560.44;5025829;28;20045;-76
2021/09/18 07:44:09;;;;;;;18.58;9.13;;;;;;;19.56;65.76;93571.66;5044556;28;20035;-76
2021/09/18 07:46:34;;;;;;;21.70;8.77;;;;;;;19.54;64.70;93572.06;5028405;28;20318;-76
2021/09/18 07:49:00;;;;;;;15.48;7.47;;;;;;;19.63;64.08;93598.69;5029874;28;20479;-77
2021/09/18 07:51:27;;;;;;;17.42;8.70;;;;;;;19.37;65.19;93572.66;5029712;28;20045;-77
2021/09/18 07:53:53;;;;;;;16.70;9.13;;;;;;;19.61;65.80;93592.91;5025742;28;20043;-76
2021/09/18 07:56:19;;;;;;;22.33;9.63;;;;;;;19.50;65.89;93568.56;5023819;28;20029;-77
2021/09/18 07:58:44;;;;;;;21.63;9.98;;;;;;;19.61;65.89;93579.41;5025120;28;20025;-76
2021/09/18 08:01:11;;;;;;;13.20;8.50;;;;;;;19.55;65.17;93580.94;5025298;28;20041;-76
2021/09/18 08:03:36;;;;;;;21.58;10.10;;;;;;;19.49;65.69;93574.31;5025462;28;20037;-76
2021/09/18 08:06:02;;;;;;;21.80;9.50;;;;;;;19.54;65.85;93582.06;5027518;28;20107;-76
2021/09/18 08:08:28;;;;;;;14.90;9.57;;;;;;;19.47;65.72;93573.91;5023856;28;20072;-76
2021/09/18 08:10:53;;;;;;;18.17;10.05;;;;;;;19.62;65.85;93579.03;5026727;28;21046;-78
2021/09/18 08:13:19;;;;;;;24.83;10.30;;;;;;;19.75;65.10;93580.28;5026907;28;20040;-76
2021/09/18 08:15:44;;;;;;;14.70;9.77;;;;;;;19.80;64.76;93592.63;5025809;28;20608;-76
2021/09/18 08:18:10;;;;;;;16.95;9.73;;;;;;;19.79;64.50;93582.22;5031485;28;20033;-76
2021/09/18 08:20:35;;;;;;;13.20;9.07;;;;;;;19.78;65.12;93596.88;5029507;28;20495;-76
2021/09/18 08:23:01;;;;;;;21.80;9.20;;;;;;;19.78;64.21;93581.47;5034370;28;20040;-76
2021/09/18 08:25:27;;;;;;;15.02;10.27;;;;;;;19.80;64.67;93575.69;5030528;28;20037;-77
2021/09/18 08:27:53;;;;;;;16.33;10.52;;;;;;;19.85;63.89;93596.94;5034610;28;20041;-76
2021/09/18 08:30:18;;;;;;;18.40;10.95;;;;;;;19.99;64.92;93603.19;5030293;28;20087;-76
2021/09/18 08:32:44;;;;;;;22.85;12.13;;;;;;;20.09;64.29;93602.44;5032373;28;20029;-76
2021/09/18 08:35:10;;;;;;;18.52;10.95;;;;;;;20.13;64.36;93600.56;5030108;28;20025;-76
2021/09/18 08:37:36;;;;;;;14.40;11.27;;;;;;;20.18;64.37;93594.06;5032941;28;20045;-75
2021/09/18 08:40:02;;;;;;;19.27;11.50;;;;;;;20.23;63.49;93596.38;5032913;28;20083;-76
2021/09/18 08:42:28;;;;;;;19.27;10.63;;;;;;;20.26;64.86;93609.13;5048275;28;20747;-77
2021/09/18 08:44:54;;;;;;;18.00;11.43;;;;;;;20.24;64.84;93591.75;5032968;28;20049;-78
2021/09/18 08:47:21;;;;;;;17.85;9.18;;;;;;;20.30;63.08;93591.00;5050143;28;20903;-78
2021/09/18 08:49:47;;;;;;;18.35;8.98;;;;;;;20.43;62.25;93588.75;5036084;28;20029;-76
2021/09/18 08:52:12;;;;;;;19.52;10.77;;;;;;;20.56;63.33;93584.56;5031124;28;20510;-76
2021/09/18 08:54:41;;;;;;;21.10;11.27;;;;;;;20.68;61.35;93591.53;5033500;28;20033;-77
2021/09/18 08:57:10;;;;;;;14.15;10.18;;;;;;;20.41;62.64;93597.22;5030275;28;20044;-76
2021/09/18 08:59:37;;;;;;;20.35;11.18;;;;;;;20.38;63.67;93608.03;5032366;28;20029;-76
2021/09/18 09:02:18;;;;;;;15.88;10.50;;;;;;;20.30;62.14;93626.13;5032371;28;20029;-76
2021/09/18 09:04:45;;;;;;;18.33;13.25;;;;;;;19.84;62.94;93644.72;5032399;28;20460;-77
2021/09/18 09:07:15;;;;;;;19.63;15.23;;;;;;;19.44;64.07;93636.66;5032507;28;20139;-77
2021/09/18 09:10:10;;;;;;;17.90;14.98;;;;;;;19.50;63.70;93636.00;5030971;28;20115;-76
2021/09/18 09:12:38;;;;;;;21.15;14.57;;;;;;;19.50;63.51;93622.50;5017754;28;20160;-77
2021/09/18 09:15:22;;;;;;;17.23;14.35;;;;;;;19.56;63.58;93629.09;5021977;28;20550;-76
2021/09/18 09:17:52;;;;;;;20.07;14.37;;;;;;;19.56;63.49;93606.72;5025801;28;20071;-77
2021/09/18 09:20:25;;;;;;;19.17;14.30;;;;;;;19.68;63.37;93634.19;5024380;28;20075;-76
2021/09/18 09:22:51;;;;;;;18.13;15.00;;;;;;;19.72;63.28;93624.22;5029764;28;20036;-76
2021/09/18 09:25:49;;;;;;;22.05;13.95;;;;;;;19.70;62.68;93604.91;5026341;28;20521;-77
2021/09/18 09:28:32;;;;;;;21.35;15.90;;;;;;;19.74;62.42;93586.84;5026802;28;20056;-76
2021/09/18 09:31:21;;;;;;;21.42;16.10;;;;;;;19.09;62.97;93491.56;5029189;28;20049;-78
2021/09/18 09:34:16;;;;;;;27.88;18.55;;;;;;;19.70;63.60;93602.22;5029007;28;20041;-75
2021/09/18 09:36:45;;;;;;;20.00;14.60;;;;;;;19.58;63.50;93604.44;5020260;28;20036;-76
2021/09/18 09:39:14;;;;;;;20.67;15.38;;;;;;;19.24;64.36;93606.47;5025520;28;20364;-76
2021/09/18 09:41:40;;;;;;;17.58;15.32;;;;;;;19.00;64.65;93601.63;5028595;28;20557;-75
2021/09/18 09:44:14;;;;;;;19.92;14.57;;;;;;;18.97;64.54;93607.75;5027980;28;20033;-76
2021/09/18 09:46:41;;;;;;;22.80;16.87;;;;;;;18.91;65.60;93625.41;5021136;28;20043;-77
2021/09/18 09:49:16;;;;;;;23.33;15.65;;;;;;;18.85;65.58;93616.88;5026062;28;20029;-77
2021/09/18 09:51:43;;;;;;;17.60;14.15;;;;;;;18.64;65.54;93643.53;5027962;28;20391;-76
2021/09/18 09:54:26;;;;;;;13.05;11.23;;;;;;;18.15;65.95;93647.16;5026028;28;20040;-77
2021/09/18 09:57:09;;;;;;;15.73;12.20;;;;;;;18.07;67.10;93642.06;5029734;28;20040;-78
2021/09/18 09:59:35;;;;;;;13.95;12.18;;;;;;;18.01;66.95;93638.91;5027651;28;20491;-76
2021/09/18 10:02:02;;;;;;;17.63;10.65;;;;;;;18.11;66.44;93648.25;5027556;28;20466;-76
2021/09/18 10:04:28;;;;;;;10.98;9.55;;;;;;;17.91;65.81;93639.50;5030403;28;20514;-76
2021/09/18 10:06:54;;;;;;;10.63;8.93;;;;;;;17.76;66.48;93660.03;5028813;28;20047;-77
2021/09/18 10:09:21;;;;;;;11.13;9.70;;;;;;;17.50;67.57;93660.03;5030444;28;20285;-76
2021/09/18 10:11:47;;;;;;;11.80;9.43;;;;;;;17.39;67.94;93672.50;5025884;28;20114;-77
2021/09/18 10:14:20;;;;;;;17.48;10.85;;;;;;;17.34;68.88;93678.19;5027751;28;20025;-76
2021/09/18 10:16:50;;;;;;;13.48;12.05;;;;;;;17.31;68.72;93697.69;5028678;28;21024;-77
2021/09/18 10:19:18;;;;;;;16.25;12.90;;;;;;;17.21;69.07;93711.75;5046386;28;20158;-78
2021/09/18 10:24:34;;;;;;;20.02;12.85;;;;;;;16.80;70.75;93748.94;5025139;28;20094;-78
2021/09/18 10:27:16;;;;;;;18.33;12.07;;;;;;;16.43;71.24;93755.84;5029391;28;20052;-75
2021/09/18 10:29:44;;;;;;;14.57;10.68;;;;;;;16.36;71.93;93777.13;5027190;28;20049;-77
2021/09/18 10:32:10;;;;;;;17.40;9.98;;;;;;;16.30;72.00;93771.22;5046970;28;20025;-76
2021/09/18 10:34:36;;;;;;;13.20;8.50;;;;;;;16.33;71.74;93752.53;5028311;28;20759;-76
2021/09/18 10:37:01;;;;;;;17.48;8.38;;;;;;;16.50;72.04;93735.28;5030534;28;20033;-75
2021/09/18 10:39:27;;;;;;;6.80;4.82;;;;;;;16.46;71.93;93706.81;5031202;28;20044;-76
2021/09/18 10:41:58;;;;;;;3.92;2.75;;;;;;;16.49;69.97;93663.16;5029960;28;20054;-75
2021/09/18 10:44:26;;;;;;;7.78;3.13;;;;;;;16.77;69.38;93684.41;5027979;28;20032;-76
2021/09/18 10:46:55;;;;;;;5.38;1.90;;;;;;;16.88;68.75;93686.16;5030289;28;20605;-78
2021/09/18 10:49:37;;;;;;;2.70;0.50;;;;;;;16.34;65.79;93683.53;5031507;28;20587;-78
2021/09/18 10:52:18;;;;;;;0.55;0.55;;;;;;;16.09;67.18;93668.78;5033739;28;20055;-76
2021/09/18 10:55:02;;;;;;;0.90;0.50;;;;;;;15.89;66.37;93643.84;5032079;28;20040;-76
2021/09/18 10:57:54;;;;;;;6.03;0.50;;;;;;;15.73;68.08;93624.34;5034221;28;20033;-77
2021/09/18 11:00:19;;;;;;;1.88;0.45;;;;;;;15.80;68.78;93611.09;5017748;28;20071;-77
2021/09/18 11:02:50;;;;;;;0.90;0.40;;;;;;;15.92;67.61;93602.16;5027513;28;20128;-75
2021/09/18 11:05:21;;;;;;;2.60;0.50;;;;;;;15.91;68.06;93601.38;5030345;28;20038;-75
2021/09/18 11:07:49;;;;;;;2.25;0.88;;;;;;;15.97;69.32;93591.16;5032572;28;20467;-75
2021/09/18 11:10:16;;;;;;;4.53;1.45;;;;;;;16.18;68.94;93597.69;5026479;28;20110;-74
2021/09/18 11:13:02;;;;;;;1.10;0.80;;;;;;;16.29;69.19;93598.69;5028248;28;20594;-76
2021/09/18 11:15:53;;;;;;;7.63;3.13;;;;;;;16.23;69.79;93618.13;5028383;28;20123;-74
2021/09/18 11:18:28;;;;;;;6.80;4.18;;;;;;;16.32;70.42;93629.47;5031374;28;20639;-76
2021/09/18 11:21:07;;;;;;;7.75;4.30;;;;;;;16.20;70.76;93641.06;5031986;28;20049;-77
2021/09/18 11:23:53;;;;;;;5.88;3.80;;;;;;;16.04;70.85;93629.59;5044626;28;20041;-75
2021/09/18 11:26:31;;;;;;;;;;;;;;;16.05;71.08;93652.63;5043286;28;20461;-77
2021/09/18 11:29:33;;;;;;;7.10;4.53;;;;;;;15.89;71.65;93662.59;5031285;28;19928;-75